sensor_id;sensor_type;location;lat;lon;timestamp;temperature;humidity
16523;DHT22;19889;52.546;13.348;2022-08-19T00:02:16;24.10;99.90
16523;DHT22;19889;52.546;13.348;2022-08-19T00:04:43;24.20;99.90
16523;DHT22;19889;52.546;13.348;2022-08-19T00:07:12;23.80;99.90
16523;DHT22;19889;52.546;13.348;2022-08-19T00:09:39;24.00;99.90
16523;DHT22;19889;52.546;13.348;2022-08-19T00:12:07;24.00;99.90
16523;DHT22;19889;52.546;13.348;2022-08-19T00:14:34;23.90;99.90
16523;DHT22;19889;52.546;13.348;2022-08-19T00:17:01;24.10;99.90
16523;DHT22;19889;52.546;13.348;2022-08-19T00:19:29;23.90;99.90
16523;DHT22;19889;52.546;13.348;2022-08-19T00:21:55;23.90;99.90
16523;DHT22;19889;52.546;13.348;2022-08-19T00:24:22;23.90;99.90
16523;DHT22;19889;52.546;13.348;2022-08-19T00:26:49;23.90;99.90
16523;DHT22;19889;52.546;13.348;2022-08-19T00:29:20;24.00;99.90
16523;DHT22;19889;52.546;13.348;2022-08-19T00:31:47;23.90;99.90
16523;DHT22;19889;52.546;13.348;2022-08-19T00:34:15;23.80;99.90
16523;DHT22;19889;52.546;13.348;2022-08-19T00:36:43;23.90;99.90
16523;DHT22;19889;52.546;13.348;2022-08-19T00:39:11;23.90;99.90
16523;DHT22;19889;52.546;13.348;2022-08-19T00:41:38;23.70;99.90
16523;DHT22;19889;52.546;13.348;2022-08-19T00:44:08;23.70;99.90
16523;DHT22;19889;52.546;13.348;2022-08-19T00:46:39;23.80;99.90
16523;DHT22;19889;52.546;13.348;2022-08-19T00:49:10;23.80;99.90
16523;DHT22;19889;52.546;13.348;2022-08-19T00:51:40;23.80;99.90
16523;DHT22;19889;52.546;13.348;2022-08-19T00:54:07;23.80;99.90
16523;DHT22;19889;52.546;13.348;2022-08-19T00:56:34;23.70;99.90
16523;DHT22;19889;52.546;13.348;2022-08-19T00:59:02;23.70;99.90
16523;DHT22;19889;52.546;13.348;2022-08-19T01:01:31;23.70;99.90
16523;DHT22;19889;52.546;13.348;2022-08-19T01:03:59;24.00;99.90
16523;DHT22;19889;52.546;13.348;2022-08-19T01:06:27;23.70;99.90
16523;DHT22;19889;52.546;13.348;2022-08-19T01:08:54;23.80;99.90
16523;DHT22;19889;52.546;13.348;2022-08-19T01:11:21;23.80;99.90
16523;DHT22;19889;52.546;13.348;2022-08-19T01:13:48;23.70;99.90
16523;DHT22;19889;52.546;13.348;2022-08-19T01:16:18;24.00;99.90
16523;DHT22;19889;52.546;13.348;2022-08-19T01:18:46;23.70;99.90
16523;DHT22;19889;52.546;13.348;2022-08-19T01:21:20;23.70;99.90
16523;DHT22;19889;52.546;13.348;2022-08-19T01:23:49;23.60;99.90
16523;DHT22;19889;52.546;13.348;2022-08-19T01:26:18;23.60;99.90
16523;DHT22;19889;52.546;13.348;2022-08-19T01:28:48;23.40;99.90
16523;DHT22;19889;52.546;13.348;2022-08-19T01:31:17;23.50;99.90
16523;DHT22;19889;52.546;13.348;2022-08-19T01:33:46;23.60;99.90
16523;DHT22;19889;52.546;13.348;2022-08-19T01:36:15;23.50;99.90
16523;DHT22;19889;52.546;13.348;2022-08-19T01:38:43;23.70;99.90
16523;DHT22;19889;52.546;13.348;2022-08-19T01:41:13;23.50;99.90
16523;DHT22;19889;52.546;13.348;2022-08-19T01:43:40;23.60;99.90
16523;DHT22;19889;52.546;13.348;2022-08-19T01:46:07;23.30;99.90
16523;DHT22;19889;52.546;13.348;2022-08-19T01:48:36;23.50;99.90
16523;DHT22;19889;52.546;13.348;2022-08-19T01:51:03;23.50;99.90
16523;DHT22;19889;52.546;13.348;2022-08-19T01:53:30;23.50;99.90
16523;DHT22;19889;52.546;13.348;2022-08-19T01:55:58;23.50;99.90
16523;DHT22;19889;52.546;13.348;2022-08-19T01:58:30;23.40;99.90
16523;DHT22;19889;52.546;13.348;2022-08-19T02:00:58;23.50;99.90
16523;DHT22;19889;52.546;13.348;2022-08-19T02:03:25;23.40;99.90
16523;DHT22;19889;52.546;13.348;2022-08-19T02:05:57;23.40;99.90
16523;DHT22;19889;52.546;13.348;2022-08-19T02:08:25;23.40;99.90
16523;DHT22;19889;52.546;13.348;2022-08-19T02:10:52;23.40;99.90
16523;DHT22;19889;52.546;13.348;2022-08-19T02:13:20;23.20;99.90
16523;DHT22;19889;52.546;13.348;2022-08-19T02:15:48;23.10;99.90
16523;DHT22;19889;52.546;13.348;2022-08-19T02:18:15;23.10;99.90
16523;DHT22;19889;52.546;13.348;2022-08-19T02:20:43;23.10;99.90
16523;DHT22;19889;52.546;13.348;2022-08-19T02:23:13;23.10;99.90
16523;DHT22;19889;52.546;13.348;2022-08-19T02:25:40;23.00;99.90
16523;DHT22;19889;52.546;13.348;2022-08-19T02:28:07;23.00;99.90
16523;DHT22;19889;52.546;13.348;2022-08-19T02:30:34;23.00;99.90
16523;DHT22;19889;52.546;13.348;2022-08-19T02:33:02;22.90;99.90
16523;DHT22;19889;52.546;13.348;2022-08-19T02:35:29;22.90;99.90
16523;DHT22;19889;52.546;13.348;2022-08-19T02:37:56;22.80;99.90
16523;DHT22;19889;52.546;13.348;2022-08-19T02:40:47;22.80;99.90
16523;DHT22;19889;52.546;13.348;2022-08-19T02:43:15;22.70;99.90
16523;DHT22;19889;52.546;13.348;2022-08-19T02:45:42;22.70;99.90
16523;DHT22;19889;52.546;13.348;2022-08-19T02:48:10;22.70;99.90
16523;DHT22;19889;52.546;13.348;2022-08-19T02:50:38;22.70;99.90
16523;DHT22;19889;52.546;13.348;2022-08-19T02:53:05;22.70;99.90
16523;DHT22;19889;52.546;13.348;2022-08-19T02:55:34;22.60;99.90
16523;DHT22;19889;52.546;13.348;2022-08-19T02:58:01;22.60;99.90
16523;DHT22;19889;52.546;13.348;2022-08-19T03:00:28;22.60;99.90
16523;DHT22;19889;52.546;13.348;2022-08-19T03:02:55;22.60;99.90
16523;DHT22;19889;52.546;13.348;2022-08-19T03:05:23;22.50;99.90
16523;DHT22;19889;52.546;13.348;2022-08-19T03:07:50;22.50;99.90
16523;DHT22;19889;52.546;13.348;2022-08-19T03:10:17;22.60;99.90
16523;DHT22;19889;52.546;13.348;2022-08-19T03:12:44;22.60;99.90
16523;DHT22;19889;52.546;13.348;2022-08-19T03:15:11;22.60;99.90
16523;DHT22;19889;52.546;13.348;2022-08-19T03:17:38;22.60;99.90
16523;DHT22;19889;52.546;13.348;2022-08-19T03:20:05;22.60;99.90
16523;DHT22;19889;52.546;13.348;2022-08-19T03:22:34;22.60;99.90
16523;DHT22;19889;52.546;13.348;2022-08-19T03:25:00;22.60;99.90
16523;DHT22;19889;52.546;13.348;2022-08-19T03:27:27;22.60;99.90
16523;DHT22;19889;52.546;13.348;2022-08-19T03:29:55;22.60;99.90
16523;DHT22;19889;52.546;13.348;2022-08-19T03:32:22;22.70;99.90
16523;DHT22;19889;52.546;13.348;2022-08-19T03:34:49;22.60;99.90
16523;DHT22;19889;52.546;13.348;2022-08-19T03:37:16;22.50;99.90
16523;DHT22;19889;52.546;13.348;2022-08-19T03:39:44;22.50;99.90
16523;DHT22;19889;52.546;13.348;2022-08-19T03:42:11;22.50;99.90
16523;DHT22;19889;52.546;13.348;2022-08-19T03:44:38;22.50;99.90
16523;DHT22;19889;52.546;13.348;2022-08-19T03:47:05;22.50;99.90
16523;DHT22;19889;52.546;13.348;2022-08-19T03:49:33;22.50;99.90
16523;DHT22;19889;52.546;13.348;2022-08-19T03:52:01;22.40;99.90
16523;DHT22;19889;52.546;13.348;2022-08-19T03:54:30;22.40;99.90
16523;DHT22;19889;52.546;13.348;2022-08-19T03:56:58;22.40;99.90
16523;DHT22;19889;52.546;13.348;2022-08-19T03:59:27;22.40;99.90
16523;DHT22;19889;52.546;13.348;2022-08-19T04:01:55;22.40;99.90
16523;DHT22;19889;52.546;13.348;2022-08-19T04:04:22;22.40;99.90
16523;DHT22;19889;52.546;13.348;2022-08-19T04:06:50;22.40;99.90
16523;DHT22;19889;52.546;13.348;2022-08-19T04:09:17;22.30;99.90
16523;DHT22;19889;52.546;13.348;2022-08-19T04:11:46;22.30;99.90
16523;DHT22;19889;52.546;13.348;2022-08-19T04:14:17;22.30;99.90
16523;DHT22;19889;52.546;13.348;2022-08-19T04:16:45;22.30;99.90
16523;DHT22;19889;52.546;13.348;2022-08-19T04:19:14;22.30;99.90
16523;DHT22;19889;52.546;13.348;2022-08-19T04:21:43;22.30;99.90
16523;DHT22;19889;52.546;13.348;2022-08-19T04:24:12;22.40;99.90
16523;DHT22;19889;52.546;13.348;2022-08-19T04:26:40;22.30;99.90
16523;DHT22;19889;52.546;13.348;2022-08-19T04:29:11;22.40;99.90
16523;DHT22;19889;52.546;13.348;2022-08-19T04:31:40;22.40;99.90
16523;DHT22;19889;52.546;13.348;2022-08-19T04:34:08;22.30;99.90
16523;DHT22;19889;52.546;13.348;2022-08-19T04:36:37;22.40;99.90
16523;DHT22;19889;52.546;13.348;2022-08-19T04:39:09;22.40;99.90
16523;DHT22;19889;52.546;13.348;2022-08-19T04:41:37;22.50;99.90
16523;DHT22;19889;52.546;13.348;2022-08-19T04:44:21;22.40;99.90
16523;DHT22;19889;52.546;13.348;2022-08-19T04:46:50;22.40;99.90
16523;DHT22;19889;52.546;13.348;2022-08-19T04:49:19;22.60;99.90
16523;DHT22;19889;52.546;13.348;2022-08-19T04:51:47;22.40;99.90
16523;DHT22;19889;52.546;13.348;2022-08-19T04:54:15;22.40;99.90
16523;DHT22;19889;52.546;13.348;2022-08-19T04:56:42;22.50;99.90
16523;DHT22;19889;52.546;13.348;2022-08-19T04:59:10;22.40;99.90
16523;DHT22;19889;52.546;13.348;2022-08-19T05:01:37;22.50;99.90
16523;DHT22;19889;52.546;13.348;2022-08-19T05:04:06;22.40;99.90
16523;DHT22;19889;52.546;13.348;2022-08-19T05:06:33;22.40;99.90
16523;DHT22;19889;52.546;13.348;2022-08-19T05:09:01;22.40;99.90
16523;DHT22;19889;52.546;13.348;2022-08-19T05:11:30;22.50;99.90
16523;DHT22;19889;52.546;13.348;2022-08-19T05:13:57;22.50;99.90
16523;DHT22;19889;52.546;13.348;2022-08-19T05:16:26;22.50;99.90
16523;DHT22;19889;52.546;13.348;2022-08-19T05:18:53;22.50;99.90
16523;DHT22;19889;52.546;13.348;2022-08-19T05:21:40;22.50;99.90
16523;DHT22;19889;52.546;13.348;2022-08-19T05:24:25;22.50;99.90
16523;DHT22;19889;52.546;13.348;2022-08-19T05:26:53;22.50;99.90
16523;DHT22;19889;52.546;13.348;2022-08-19T05:29:23;22.50;99.90
16523;DHT22;19889;52.546;13.348;2022-08-19T05:31:52;22.40;99.90
16523;DHT22;19889;52.546;13.348;2022-08-19T05:34:21;22.40;99.90
16523;DHT22;19889;52.546;13.348;2022-08-19T05:36:53;22.50;99.90
16523;DHT22;19889;52.546;13.348;2022-08-19T05:39:21;22.50;99.90
16523;DHT22;19889;52.546;13.348;2022-08-19T05:41:50;22.50;99.90
16523;DHT22;19889;52.546;13.348;2022-08-19T05:44:18;22.50;99.90
16523;DHT22;19889;52.546;13.348;2022-08-19T05:46:46;22.60;99.90
16523;DHT22;19889;52.546;13.348;2022-08-19T05:49:14;22.60;99.90
16523;DHT22;19889;52.546;13.348;2022-08-19T05:51:42;22.60;99.90
16523;DHT22;19889;52.546;13.348;2022-08-19T05:54:11;22.70;99.90
16523;DHT22;19889;52.546;13.348;2022-08-19T05:56:40;22.70;99.90
16523;DHT22;19889;52.546;13.348;2022-08-19T05:59:08;22.80;99.90
16523;DHT22;19889;52.546;13.348;2022-08-19T06:01:37;22.90;99.90
16523;DHT22;19889;52.546;13.348;2022-08-19T06:04:05;22.90;99.90
16523;DHT22;19889;52.546;13.348;2022-08-19T06:06:32;23.00;99.90
16523;DHT22;19889;52.546;13.348;2022-08-19T06:09:00;23.10;99.90
16523;DHT22;19889;52.546;13.348;2022-08-19T06:11:34;23.10;99.90
16523;DHT22;19889;52.546;13.348;2022-08-19T06:14:04;23.10;99.90
16523;DHT22;19889;52.546;13.348;2022-08-19T06:16:33;23.10;99.90
16523;DHT22;19889;52.546;13.348;2022-08-19T06:19:02;23.10;99.90
16523;DHT22;19889;52.546;13.348;2022-08-19T06:21:30;23.10;99.90
16523;DHT22;19889;52.546;13.348;2022-08-19T06:23:58;23.10;99.90
16523;DHT22;19889;52.546;13.348;2022-08-19T06:26:26;23.20;99.90
16523;DHT22;19889;52.546;13.348;2022-08-19T06:28:54;23.20;99.90
16523;DHT22;19889;52.546;13.348;2022-08-19T06:31:24;23.30;99.90
16523;DHT22;19889;52.546;13.348;2022-08-19T06:33:51;23.30;99.90
16523;DHT22;19889;52.546;13.348;2022-08-19T06:36:19;23.40;99.90
16523;DHT22;19889;52.546;13.348;2022-08-19T06:38:47;23.40;99.90
16523;DHT22;19889;52.546;13.348;2022-08-19T06:41:14;23.30;99.90
16523;DHT22;19889;52.546;13.348;2022-08-19T06:43:40;23.30;99.90
16523;DHT22;19889;52.546;13.348;2022-08-19T06:46:14;23.40;99.90
16523;DHT22;19889;52.546;13.348;2022-08-19T06:48:43;21.80;99.90
16523;DHT22;19889;52.546;13.348;2022-08-19T06:51:10;23.50;99.90
16523;DHT22;19889;52.546;13.348;2022-08-19T06:53:36;23.50;99.90
16523;DHT22;19889;52.546;13.348;2022-08-19T06:56:05;23.50;99.90
16523;DHT22;19889;52.546;13.348;2022-08-19T06:58:31;23.50;99.90
16523;DHT22;19889;52.546;13.348;2022-08-19T07:00:59;23.50;99.90
16523;DHT22;19889;52.546;13.348;2022-08-19T07:03:31;23.50;99.90
16523;DHT22;19889;52.546;13.348;2022-08-19T07:06:02;23.60;99.90
16523;DHT22;19889;52.546;13.348;2022-08-19T07:08:30;23.70;99.90
16523;DHT22;19889;52.546;13.348;2022-08-19T07:10:57;23.70;99.90
16523;DHT22;19889;52.546;13.348;2022-08-19T07:13:24;23.60;99.90
16523;DHT22;19889;52.546;13.348;2022-08-19T07:15:51;23.60;99.90
16523;DHT22;19889;52.546;13.348;2022-08-19T07:18:19;23.60;99.90
16523;DHT22;19889;52.546;13.348;2022-08-19T07:20:48;23.60;99.90
16523;DHT22;19889;52.546;13.348;2022-08-19T07:23:15;23.60;99.90
16523;DHT22;19889;52.546;13.348;2022-08-19T07:25:42;23.60;99.90
16523;DHT22;19889;52.546;13.348;2022-08-19T07:28:09;23.70;99.90
16523;DHT22;19889;52.546;13.348;2022-08-19T07:30:37;23.70;99.90
16523;DHT22;19889;52.546;13.348;2022-08-19T07:33:06;23.70;99.90
16523;DHT22;19889;52.546;13.348;2022-08-19T07:35:33;23.70;99.90
16523;DHT22;19889;52.546;13.348;2022-08-19T07:38:02;23.70;99.90
16523;DHT22;19889;52.546;13.348;2022-08-19T07:40:32;23.70;99.90
16523;DHT22;19889;52.546;13.348;2022-08-19T07:42:59;23.70;99.90
16523;DHT22;19889;52.546;13.348;2022-08-19T07:45:26;23.70;99.90
16523;DHT22;19889;52.546;13.348;2022-08-19T07:47:54;23.70;99.90
16523;DHT22;19889;52.546;13.348;2022-08-19T07:50:21;23.70;99.90
16523;DHT22;19889;52.546;13.348;2022-08-19T07:52:49;23.70;99.90
16523;DHT22;19889;52.546;13.348;2022-08-19T07:55:19;23.70;99.90
16523;DHT22;19889;52.546;13.348;2022-08-19T07:57:46;23.70;99.90
16523;DHT22;19889;52.546;13.348;2022-08-19T08:00:14;23.70;99.90
16523;DHT22;19889;52.546;13.348;2022-08-19T08:02:41;23.70;99.90
16523;DHT22;19889;52.546;13.348;2022-08-19T08:05:09;23.70;99.90
16523;DHT22;19889;52.546;13.348;2022-08-19T08:07:54;23.70;99.90
16523;DHT22;19889;52.546;13.348;2022-08-19T08:10:40;23.70;99.90
16523;DHT22;19889;52.546;13.348;2022-08-19T08:13:07;23.70;99.90
16523;DHT22;19889;52.546;13.348;2022-08-19T08:15:34;23.70;99.90
16523;DHT22;19889;52.546;13.348;2022-08-19T08:18:02;23.70;99.90
16523;DHT22;19889;52.546;13.348;2022-08-19T08:20:29;23.70;99.90
16523;DHT22;19889;52.546;13.348;2022-08-19T08:22:56;23.70;99.90
16523;DHT22;19889;52.546;13.348;2022-08-19T08:25:42;23.70;99.90
16523;DHT22;19889;52.546;13.348;2022-08-19T08:28:09;23.70;99.90
16523;DHT22;19889;52.546;13.348;2022-08-19T08:30:36;23.70;99.90
16523;DHT22;19889;52.546;13.348;2022-08-19T08:33:06;23.80;99.90
16523;DHT22;19889;52.546;13.348;2022-08-19T08:35:34;23.70;99.90
16523;DHT22;19889;52.546;13.348;2022-08-19T08:38:01;23.80;99.90
16523;DHT22;19889;52.546;13.348;2022-08-19T08:40:34;23.80;99.90
16523;DHT22;19889;52.546;13.348;2022-08-19T08:43:13;23.80;99.90
16523;DHT22;19889;52.546;13.348;2022-08-19T08:45:45;23.80;99.90
16523;DHT22;19889;52.546;13.348;2022-08-19T08:48:18;23.90;99.90
16523;DHT22;19889;52.546;13.348;2022-08-19T08:50:48;23.90;99.90
16523;DHT22;19889;52.546;13.348;2022-08-19T08:53:17;23.90;99.90
16523;DHT22;19889;52.546;13.348;2022-08-19T08:55:44;23.90;99.90
16523;DHT22;19889;52.546;13.348;2022-08-19T08:58:16;23.80;99.90
16523;DHT22;19889;52.546;13.348;2022-08-19T09:00:46;23.80;99.90
16523;DHT22;19889;52.546;13.348;2022-08-19T09:03:18;23.80;99.90
16523;DHT22;19889;52.546;13.348;2022-08-19T09:05:53;23.80;99.90
16523;DHT22;19889;52.546;13.348;2022-08-19T09:08:31;23.80;99.90
16523;DHT22;19889;52.546;13.348;2022-08-19T09:11:03;23.90;99.90
16523;DHT22;19889;52.546;13.348;2022-08-19T09:13:40;23.90;99.90
16523;DHT22;19889;52.546;13.348;2022-08-19T09:16:12;24.00;99.90
16523;DHT22;19889;52.546;13.348;2022-08-19T09:18:42;23.90;99.90
16523;DHT22;19889;52.546;13.348;2022-08-19T09:21:10;24.00;99.90
16523;DHT22;19889;52.546;13.348;2022-08-19T09:23:37;24.10;99.90
16523;DHT22;19889;52.546;13.348;2022-08-19T09:26:07;24.20;99.90
16523;DHT22;19889;52.546;13.348;2022-08-19T09:28:36;24.20;99.90
16523;DHT22;19889;52.546;13.348;2022-08-19T09:31:03;24.40;99.90
16523;DHT22;19889;52.546;13.348;2022-08-19T09:33:30;24.50;99.90
16523;DHT22;19889;52.546;13.348;2022-08-19T09:36:02;24.60;99.90
16523;DHT22;19889;52.546;13.348;2022-08-19T09:38:30;24.60;99.90
16523;DHT22;19889;52.546;13.348;2022-08-19T09:41:02;24.80;99.90
16523;DHT22;19889;52.546;13.348;2022-08-19T09:43:30;24.80;99.90
16523;DHT22;19889;52.546;13.348;2022-08-19T09:45:59;24.80;99.90
16523;DHT22;19889;52.546;13.348;2022-08-19T09:48:26;24.90;99.90
16523;DHT22;19889;52.546;13.348;2022-08-19T09:50:52;24.90;99.90
16523;DHT22;19889;52.546;13.348;2022-08-19T09:53:19;24.90;99.90
16523;DHT22;19889;52.546;13.348;2022-08-19T09:55:47;24.90;99.90
16523;DHT22;19889;52.546;13.348;2022-08-19T09:58:14;24.90;99.90
16523;DHT22;19889;52.546;13.348;2022-08-19T10:00:41;25.00;99.90
16523;DHT22;19889;52.546;13.348;2022-08-19T10:03:09;25.00;99.90
16523;DHT22;19889;52.546;13.348;2022-08-19T10:05:36;25.00;99.90
16523;DHT22;19889;52.546;13.348;2022-08-19T10:08:17;25.10;99.90
16523;DHT22;19889;52.546;13.348;2022-08-19T10:10:45;25.00;99.90
16523;DHT22;19889;52.546;13.348;2022-08-19T10:13:13;25.00;99.90
16523;DHT22;19889;52.546;13.348;2022-08-19T10:15:40;25.00;99.90
16523;DHT22;19889;52.546;13.348;2022-08-19T10:18:08;25.00;99.90
16523;DHT22;19889;52.546;13.348;2022-08-19T10:20:36;25.00;99.90
16523;DHT22;19889;52.546;13.348;2022-08-19T10:23:04;25.00;99.90
16523;DHT22;19889;52.546;13.348;2022-08-19T10:25:32;25.00;99.90
16523;DHT22;19889;52.546;13.348;2022-08-19T10:28:00;24.90;99.90
16523;DHT22;19889;52.546;13.348;2022-08-19T10:30:27;25.00;99.90
16523;DHT22;19889;52.546;13.348;2022-08-19T10:32:54;25.00;99.90
16523;DHT22;19889;52.546;13.348;2022-08-19T10:35:22;25.00;99.90
16523;DHT22;19889;52.546;13.348;2022-08-19T10:37:50;25.00;99.90
16523;DHT22;19889;52.546;13.348;2022-08-19T10:40:17;24.90;99.90
16523;DHT22;19889;52.546;13.348;2022-08-19T10:42:44;24.90;99.90
16523;DHT22;19889;52.546;13.348;2022-08-19T10:45:11;24.80;99.90
16523;DHT22;19889;52.546;13.348;2022-08-19T10:47:37;24.80;99.90
16523;DHT22;19889;52.546;13.348;2022-08-19T10:50:05;24.80;99.90
16523;DHT22;19889;52.546;13.348;2022-08-19T10:52:51;24.70;99.90
16523;DHT22;19889;52.546;13.348;2022-08-19T10:55:20;24.70;99.90
16523;DHT22;19889;52.546;13.348;2022-08-19T10:58:11;24.70;99.90
16523;DHT22;19889;52.546;13.348;2022-08-19T11:00:38;24.70;99.90
16523;DHT22;19889;52.546;13.348;2022-08-19T11:03:06;24.60;99.90
16523;DHT22;19889;52.546;13.348;2022-08-19T11:05:33;24.70;99.90
16523;DHT22;19889;52.546;13.348;2022-08-19T11:08:01;24.60;99.90
16523;DHT22;19889;52.546;13.348;2022-08-19T11:10:28;24.60;99.90
16523;DHT22;19889;52.546;13.348;2022-08-19T11:12:54;24.60;99.90
16523;DHT22;19889;52.546;13.348;2022-08-19T11:15:22;24.60;99.90
16523;DHT22;19889;52.546;13.348;2022-08-19T11:17:51;24.60;99.90
16523;DHT22;19889;52.546;13.348;2022-08-19T11:20:19;24.50;99.90
16523;DHT22;19889;52.546;13.348;2022-08-19T11:22:46;24.50;99.90
16523;DHT22;19889;52.546;13.348;2022-08-19T11:25:15;24.50;99.90
16523;DHT22;19889;52.546;13.348;2022-08-19T11:27:42;24.50;99.90
16523;DHT22;19889;52.546;13.348;2022-08-19T11:30:12;24.40;99.90
16523;DHT22;19889;52.546;13.348;2022-08-19T11:32:40;24.50;99.90
16523;DHT22;19889;52.546;13.348;2022-08-19T11:35:07;24.50;99.90
16523;DHT22;19889;52.546;13.348;2022-08-19T11:37:36;24.50;99.90
16523;DHT22;19889;52.546;13.348;2022-08-19T11:40:04;24.50;99.90
16523;DHT22;19889;52.546;13.348;2022-08-19T11:42:33;24.50;99.90
16523;DHT22;19889;52.546;13.348;2022-08-19T11:45:17;24.50;99.90
16523;DHT22;19889;52.546;13.348;2022-08-19T11:47:44;24.50;99.90
16523;DHT22;19889;52.546;13.348;2022-08-19T11:50:12;24.50;99.90
16523;DHT22;19889;52.546;13.348;2022-08-19T11:52:39;24.50;99.90
16523;DHT22;19889;52.546;13.348;2022-08-19T11:55:07;24.40;99.90
16523;DHT22;19889;52.546;13.348;2022-08-19T11:57:35;24.40;99.90
16523;DHT22;19889;52.546;13.348;2022-08-19T12:00:04;24.40;99.90
16523;DHT22;19889;52.546;13.348;2022-08-19T12:02:31;24.40;99.90
16523;DHT22;19889;52.546;13.348;2022-08-19T12:04:58;24.40;99.90
16523;DHT22;19889;52.546;13.348;2022-08-19T12:07:28;24.40;99.90
16523;DHT22;19889;52.546;13.348;2022-08-19T12:09:57;24.50;99.90
16523;DHT22;19889;52.546;13.348;2022-08-19T12:12:23;24.50;99.90
16523;DHT22;19889;52.546;13.348;2022-08-19T12:14:53;24.60;99.90
16523;DHT22;19889;52.546;13.348;2022-08-19T12:17:22;24.60;99.90
16523;DHT22;19889;52.546;13.348;2022-08-19T12:19:49;24.70;99.90
16523;DHT22;19889;52.546;13.348;2022-08-19T12:22:16;24.60;99.90
16523;DHT22;19889;52.546;13.348;2022-08-19T12:24:43;24.60;99.90
16523;DHT22;19889;52.546;13.348;2022-08-19T12:27:10;24.60;99.90
16523;DHT22;19889;52.546;13.348;2022-08-19T12:29:37;24.60;99.90
16523;DHT22;19889;52.546;13.348;2022-08-19T12:32:05;24.70;99.90
16523;DHT22;19889;52.546;13.348;2022-08-19T12:34:33;24.70;99.90
16523;DHT22;19889;52.546;13.348;2022-08-19T12:37:02;24.80;99.90
16523;DHT22;19889;52.546;13.348;2022-08-19T12:39:33;24.90;99.90
16523;DHT22;19889;52.546;13.348;2022-08-19T12:42:00;25.00;99.90
16523;DHT22;19889;52.546;13.348;2022-08-19T12:44:26;25.10;99.90
16523;DHT22;19889;52.546;13.348;2022-08-19T12:46:53;25.00;99.90
16523;DHT22;19889;52.546;13.348;2022-08-19T12:49:21;25.00;99.90
16523;DHT22;19889;52.546;13.348;2022-08-19T12:51:49;25.10;99.90
16523;DHT22;19889;52.546;13.348;2022-08-19T12:54:16;25.10;99.90
16523;DHT22;19889;52.546;13.348;2022-08-19T12:56:43;25.10;99.90
16523;DHT22;19889;52.546;13.348;2022-08-19T12:59:10;25.10;99.90
16523;DHT22;19889;52.546;13.348;2022-08-19T13:01:37;25.10;99.90
16523;DHT22;19889;52.546;13.348;2022-08-19T13:04:04;25.10;99.90
16523;DHT22;19889;52.546;13.348;2022-08-19T13:06:32;25.10;99.90
16523;DHT22;19889;52.546;13.348;2022-08-19T13:08:59;25.10;99.90
16523;DHT22;19889;52.546;13.348;2022-08-19T13:11:25;25.10;99.90
16523;DHT22;19889;52.546;13.348;2022-08-19T13:13:54;25.00;99.90
16523;DHT22;19889;52.546;13.348;2022-08-19T13:16:21;25.10;99.90
16523;DHT22;19889;52.546;13.348;2022-08-19T13:18:49;25.10;99.90
16523;DHT22;19889;52.546;13.348;2022-08-19T13:21:19;25.00;99.90
16523;DHT22;19889;52.546;13.348;2022-08-19T13:23:47;25.00;99.90
16523;DHT22;19889;52.546;13.348;2022-08-19T13:26:16;25.10;99.90
16523;DHT22;19889;52.546;13.348;2022-08-19T13:28:44;25.10;99.90
16523;DHT22;19889;52.546;13.348;2022-08-19T13:31:30;25.10;99.90
16523;DHT22;19889;52.546;13.348;2022-08-19T13:34:16;25.10;99.90
16523;DHT22;19889;52.546;13.348;2022-08-19T13:36:43;25.20;99.90
16523;DHT22;19889;52.546;13.348;2022-08-19T13:39:12;25.20;99.90
16523;DHT22;19889;52.546;13.348;2022-08-19T13:41:43;25.30;99.90
16523;DHT22;19889;52.546;13.348;2022-08-19T13:44:13;25.20;99.90
16523;DHT22;19889;52.546;13.348;2022-08-19T13:46:40;25.20;99.90
16523;DHT22;19889;52.546;13.348;2022-08-19T13:49:10;25.30;99.90
16523;DHT22;19889;52.546;13.348;2022-08-19T13:51:38;25.30;99.90
16523;DHT22;19889;52.546;13.348;2022-08-19T13:54:05;25.30;99.90
16523;DHT22;19889;52.546;13.348;2022-08-19T13:56:34;25.20;99.90
16523;DHT22;19889;52.546;13.348;2022-08-19T13:59:01;25.20;99.90
16523;DHT22;19889;52.546;13.348;2022-08-19T14:01:28;25.10;99.90
16523;DHT22;19889;52.546;13.348;2022-08-19T14:03:56;25.10;99.90
16523;DHT22;19889;52.546;13.348;2022-08-19T14:06:22;25.10;99.90
16523;DHT22;19889;52.546;13.348;2022-08-19T14:08:50;25.10;99.90
16523;DHT22;19889;52.546;13.348;2022-08-19T14:11:18;25.20;99.90
16523;DHT22;19889;52.546;13.348;2022-08-19T14:13:46;25.20;99.90
16523;DHT22;19889;52.546;13.348;2022-08-19T14:16:13;25.20;99.90
16523;DHT22;19889;52.546;13.348;2022-08-19T14:18:41;25.20;99.90
16523;DHT22;19889;52.546;13.348;2022-08-19T14:21:08;25.20;99.90
16523;DHT22;19889;52.546;13.348;2022-08-19T14:23:40;25.20;99.90
16523;DHT22;19889;52.546;13.348;2022-08-19T14:26:08;25.20;99.90
16523;DHT22;19889;52.546;13.348;2022-08-19T14:28:35;25.10;99.90
16523;DHT22;19889;52.546;13.348;2022-08-19T14:31:03;25.10;99.90
16523;DHT22;19889;52.546;13.348;2022-08-19T14:33:30;25.10;99.90
16523;DHT22;19889;52.546;13.348;2022-08-19T14:35:57;25.10;99.90
16523;DHT22;19889;52.546;13.348;2022-08-19T14:38:25;25.10;99.90
16523;DHT22;19889;52.546;13.348;2022-08-19T14:40:53;25.00;99.90
16523;DHT22;19889;52.546;13.348;2022-08-19T14:43:19;25.10;99.90
16523;DHT22;19889;52.546;13.348;2022-08-19T14:45:48;25.00;99.90
16523;DHT22;19889;52.546;13.348;2022-08-19T14:48:16;24.90;99.90
16523;DHT22;19889;52.546;13.348;2022-08-19T14:50:43;24.90;99.90
16523;DHT22;19889;52.546;13.348;2022-08-19T14:53:09;24.90;99.90
16523;DHT22;19889;52.546;13.348;2022-08-19T14:55:40;24.90;99.90
16523;DHT22;19889;52.546;13.348;2022-08-19T14:58:07;24.90;99.90
16523;DHT22;19889;52.546;13.348;2022-08-19T15:00:34;24.90;99.90
16523;DHT22;19889;52.546;13.348;2022-08-19T15:03:01;24.80;99.90
16523;DHT22;19889;52.546;13.348;2022-08-19T15:05:29;24.80;99.90
16523;DHT22;19889;52.546;13.348;2022-08-19T15:07:56;24.80;99.90
16523;DHT22;19889;52.546;13.348;2022-08-19T15:10:23;24.80;99.90
16523;DHT22;19889;52.546;13.348;2022-08-19T15:12:50;24.70;99.90
16523;DHT22;19889;52.546;13.348;2022-08-19T15:15:18;24.70;99.90
16523;DHT22;19889;52.546;13.348;2022-08-19T15:17:45;24.70;99.90
16523;DHT22;19889;52.546;13.348;2022-08-19T15:20:15;24.80;99.90
16523;DHT22;19889;52.546;13.348;2022-08-19T15:22:43;24.70;99.90
16523;DHT22;19889;52.546;13.348;2022-08-19T15:25:12;24.70;99.90